Time;durP1;ratioP1;P1;durP2;ratioP2;P2;SDS_P1;SDS_P2;PMS_P1;PMS_P2;Temp;Humidity;BMP_temperature;BMP_pressure;BME280_temperature;BME280_humidity;BME280_pressure;Samples;Min_cycle;Max_cycle;Signal;HPM_P1;HPM_P2
2023/12/06 00:02:23;;;;;;;;;;;;;;;;;;5080649;28;1330;-59
2023/12/06 00:04:48;;;;;;;;;;;;;;;;;;5080672;28;1239;-57
2023/12/06 00:07:14;;;;;;;;;;;;;;;;;;5080747;28;1412;-59
2023/12/06 00:09:39;;;;;;;;;;;;;;;;;;5080656;28;1304;-60
2023/12/06 00:12:04;;;;;;;;;;;;;;;;;;5080611;28;1186;-61
2023/12/06 00:14:29;;;;;;;;;;;;;;;;;;5080692;28;1380;-58
2023/12/06 00:16:56;;;;;;;;;;;;;;;;;;5080513;28;1941;-60
2023/12/06 00:19:21;;;;;;;;;;;;;;;;;;5080726;28;1210;-59
2023/12/06 00:21:46;;;;;;;;;;;;;;;;;;5081098;28;1402;-61
2023/12/06 00:24:11;;;;;;;;;;;;;;;;;;5080550;28;1260;-58
2023/12/06 00:26:39;;;;;;;;;;;;;;;;;;5080916;28;1265;-58
2023/12/06 00:29:05;;;;;;;;;;;;;;;;;;5075014;28;1558;-60
2023/12/06 00:31:30;;;;;;;;;;;;;;;;;;5060584;28;1237;-56
2023/12/06 00:33:55;;;;;;;;;;;;;;;;;;5061267;28;1342;-59
2023/12/06 00:36:20;;;;;;;;;;;;;;;;;;5064087;28;1226;-61
2023/12/06 00:38:45;;;;;;;;;;;;;;;;;;5063780;28;1882;-60
2023/12/06 00:41:10;;;;;;;;;;;;;;;;;;5063948;28;1210;-60
2023/12/06 00:43:36;;;;;;;;;;;;;;;;;;5064520;28;1421;-59
2023/12/06 00:46:01;;;;;;;;;;;;;;;;;;5063749;28;1304;-60
2023/12/06 00:48:26;;;;;;;;;;;;;;;;;;5063521;28;1318;-57
2023/12/06 00:50:51;;;;;;;;;;;;;;;;;;5063567;28;1331;-59
2023/12/06 00:53:17;;;;;;;;;;;;;;;;;;5063588;28;1390;-61
2023/12/06 00:55:42;;;;;;;;;;;;;;;;;;5073133;28;1077;-60
2023/12/06 00:58:07;;;;;;;;;;;;;;;;;;5083506;28;1898;-60
2023/12/06 01:00:32;;;;;;;;;;;;;;;;;;5083590;28;1293;-60
2023/12/06 01:02:57;;;;;;;;;;;;;;;;;;5083410;28;1191;-61
2023/12/06 01:05:22;;;;;;;;;;;;;;;;;;5083738;28;1320;-62
2023/12/06 01:07:48;;;;;;;;;;;;;;;;;;5083800;28;1357;-60
2023/12/06 01:10:13;;;;;;;;;;;;;;;;;;5083562;28;1203;-60
2023/12/06 01:12:38;;;;;;;;;;;;;;;;;;5083269;28;1238;-60
2023/12/06 01:15:04;;;;;;;;;;;;;;;;;;5083537;28;1110;-59
2023/12/06 01:17:32;;;;;;;;;;;;;;;;;;5083084;28;1886;-60
2023/12/06 01:22:22;;;;;;;;;;;;;;;;;;5084492;28;1508;-60
2023/12/06 01:24:47;;;;;;;;;;;;;;;;;;5083064;28;1097;-61
2023/12/06 01:27:12;;;;;;;;;;;;;;;;;;5083130;28;1100;-61
2023/12/06 01:29:37;;;;;;;;;;;;;;;;;;5083210;28;1550;-58
2023/12/06 01:32:03;;;;;;;;;;;;;;;;;;5083235;28;1171;-60
2023/12/06 01:34:28;;;;;;;;;;;;;;;;;;5082860;28;1229;-59
2023/12/06 01:36:53;;;;;;;;;;;;;;;;;;5083136;28;1859;-60
2023/12/06 01:39:19;;;;;;;;;;;;;;;;;;5083169;28;1329;-61
2023/12/06 01:41:44;;;;;;;;;;;;;;;;;;5083292;28;1186;-60
2023/12/06 01:44:09;;;;;;;;;;;;;;;;;;5083355;28;1210;-60
2023/12/06 01:46:34;;;;;;;;;;;;;;;;;;5082710;28;1200;-60
2023/12/06 01:48:59;;;;;;;;;;;;;;;;;;5083044;28;1186;-61
2023/12/06 01:51:25;;;;;;;;;;;;;;;;;;5082686;28;1313;-59
2023/12/06 01:53:50;;;;;;;;;;;;;;;;;;5082826;28;1322;-61
2023/12/06 01:56:15;;;;;;;;;;;;;;;;;;5084151;28;1307;-61
2023/12/06 01:58:40;;;;;;;;;;;;;;;;;;5086146;28;1890;-60
2023/12/06 02:01:05;;;;;;;;;;;;;;;;;;5086271;28;1170;-60
2023/12/06 02:03:31;;;;;;;;;;;;;;;;;;5086008;28;1175;-60
2023/12/06 02:05:56;;;;;;;;;;;;;;;;;;5085218;28;1289;-61
2023/12/06 02:08:21;;;;;;;;;;;;;;;;;;5085996;28;1353;-56
2023/12/06 02:10:46;;;;;;;;;;;;;;;;;;5085747;28;1143;-61
2023/12/06 02:13:11;;;;;;;;;;;;;;;;;;5085962;28;1401;-61
2023/12/06 02:15:36;;;;;;;;;;;;;;;;;;5085869;28;1154;-60
2023/12/06 02:18:02;;;;;;;;;;;;;;;;;;5085945;28;1878;-61
2023/12/06 02:20:27;;;;;;;;;;;;;;;;;;5085729;28;1192;-60
2023/12/06 02:22:52;;;;;;;;;;;;;;;;;;5085482;28;1317;-58
2023/12/06 02:25:17;;;;;;;;;;;;;;;;;;5085642;28;1298;-58
2023/12/06 02:27:43;;;;;;;;;;;;;;;;;;5085575;28;1304;-59
2023/12/06 02:30:08;;;;;;;;;;;;;;;;;;5085600;28;1488;-60
2023/12/06 02:32:34;;;;;;;;;;;;;;;;;;5085566;28;1215;-60
2023/12/06 02:34:59;;;;;;;;;;;;;;;;;;5085582;28;1282;-60
2023/12/06 02:37:24;;;;;;;;;;;;;;;;;;5085146;28;1866;-62
2023/12/06 02:39:50;;;;;;;;;;;;;;;;;;5085541;28;1091;-59
2023/12/06 02:42:15;;;;;;;;;;;;;;;;;;5085401;28;1357;-61
2023/12/06 02:44:40;;;;;;;;;;;;;;;;;;5085558;28;1322;-60
2023/12/06 02:47:05;;;;;;;;;;;;;;;;;;5085401;28;1311;-61
2023/12/06 02:49:30;;;;;;;;;;;;;;;;;;5085503;28;1245;-59
2023/12/06 02:51:56;;;;;;;;;;;;;;;;;;5085106;28;1258;-59
2023/12/06 02:54:21;;;;;;;;;;;;;;;;;;5085345;28;1269;-59
2023/12/06 02:56:46;;;;;;;;;;;;;;;;;;5081468;28;1890;-58
2023/12/06 02:59:11;;;;;;;;;;;;;;;;;;5080997;28;1206;-61
2023/12/06 03:01:36;;;;;;;;;;;;;;;;;;5081798;28;1211;-61
2023/12/06 03:04:02;;;;;;;;;;;;;;;;;;5081805;28;1174;-60
2023/12/06 03:06:27;;;;;;;;;;;;;;;;;;5081561;28;1260;-62
2023/12/06 03:08:52;;;;;;;;;;;;;;;;;;5081749;28;1210;-56
2023/12/06 03:11:17;;;;;;;;;;;;;;;;;;5081583;28;1072;-61
2023/12/06 03:13:42;;;;;;;;;;;;;;;;;;5081813;28;1214;-61
2023/12/06 03:16:07;;;;;;;;;;;;;;;;;;5081843;28;1466;-58
2023/12/06 03:18:33;;;;;;;;;;;;;;;;;;5081420;28;1964;-58
2023/12/06 03:20:58;;;;;;;;;;;;;;;;;;5081455;28;1277;-60
2023/12/06 03:23:23;;;;;;;;;;;;;;;;;;5081503;28;1108;-58
2023/12/06 03:25:51;;;;;;;;;;;;;;;;;;5081373;28;1313;-60
2023/12/06 03:28:16;;;;;;;;;;;;;;;;;;5081676;28;1334;-60
2023/12/06 03:30:41;;;;;;;;;;;;;;;;;;5061974;28;1562;-58
2023/12/06 03:54:52;;;;;;;;;;;;;;;;;;5062052;28;1339;-58
2023/12/06 03:57:17;;;;;;;;;;;;;;;;;;5060391;28;1906;-61
2023/12/06 03:59:42;;;;;;;;;;;;;;;;;;5060697;28;1242;-59
2023/12/06 04:02:08;;;;;;;;;;;;;;;;;;5060678;28;1286;-60
2023/12/06 04:04:33;;;;;;;;;;;;;;;;;;5060585;28;1168;-60
2023/12/06 04:06:58;;;;;;;;;;;;;;;;;;5060929;28;1298;-61
2023/12/06 04:09:23;;;;;;;;;;;;;;;;;;5060598;28;1153;-61
2023/12/06 04:11:48;;;;;;;;;;;;;;;;;;5060604;28;1202;-60
2023/12/06 04:14:14;;;;;;;;;;;;;;;;;;5060649;28;1235;-62
2023/12/06 04:16:39;;;;;;;;;;;;;;;;;;5060733;28;1886;-61
2023/12/06 04:19:04;;;;;;;;;;;;;;;;;;5060566;28;1427;-58
2023/12/06 04:21:29;;;;;;;;;;;;;;;;;;5060516;28;1395;-60
2023/12/06 04:23:54;;;;;;;;;;;;;;;;;;5060742;28;1227;-60
2023/12/06 04:26:19;;;;;;;;;;;;;;;;;;5060950;28;1351;-61
2023/12/06 04:28:45;;;;;;;;;;;;;;;;;;5059994;28;1411;-61
2023/12/06 04:31:10;;;;;;;;;;;;;;;;;;5060381;28;1204;-60
2023/12/06 04:33:35;;;;;;;;;;;;;;;;;;5060645;28;1295;-62
2023/12/06 04:36:00;;;;;;;;;;;;;;;;;;5060230;28;1184;-60
2023/12/06 04:38:25;;;;;;;;;;;;;;;;;;5060300;28;1934;-60
2023/12/06 04:40:50;;;;;;;;;;;;;;;;;;5060189;28;1237;-62
2023/12/06 04:43:16;;;;;;;;;;;;;;;;;;5060559;28;1057;-61
2023/12/06 04:45:41;;;;;;;;;;;;;;;;;;5060753;28;1108;-61
2023/12/06 04:48:06;;;;;;;;;;;;;;;;;;5060248;28;1206;-57
2023/12/06 04:50:31;;;;;;;;;;;;;;;;;;5060037;28;1410;-60
2023/12/06 04:52:57;;;;;;;;;;;;;;;;;;5060061;28;1225;-59
2023/12/06 04:55:22;;;;;;;;;;;;;;;;;;5060037;28;1265;-59
2023/12/06 04:57:47;;;;;;;;;;;;;;;;;;5074275;28;1947;-60
2023/12/06 05:00:13;;;;;;;;;;;;;;;;;;5080684;28;1206;-58
2023/12/06 05:02:38;;;;;;;;;;;;;;;;;;5080291;28;1226;-58
2023/12/06 05:05:04;;;;;;;;;;;;;;;;;;5080402;28;1334;-60
2023/12/06 05:07:29;;;;;;;;;;;;;;;;;;5065606;28;1281;-60
2023/12/06 05:09:54;;;;;;;;;;;;;;;;;;5063525;28;1210;-61
2023/12/06 05:12:19;;;;;;;;;;;;;;;;;;5071360;28;1368;-58
2023/12/06 05:14:44;;;;;;;;;;;;;;;;;;5073260;28;1309;-60
2023/12/06 05:17:10;;;;;;;;;;;;;;;;;;5071155;28;1926;-60
2023/12/06 05:19:36;;;;;;;;;;;;;;;;;;5065602;28;1339;-57
2023/12/06 05:22:01;;;;;;;;;;;;;;;;;;5071884;28;1261;-60
2023/12/06 05:24:26;;;;;;;;;;;;;;;;;;5071278;28;1357;-61
2023/12/06 05:26:51;;;;;;;;;;;;;;;;;;5076342;28;1338;-60
2023/12/06 05:29:17;;;;;;;;;;;;;;;;;;5071619;28;1301;-60
2023/12/06 05:31:42;;;;;;;;;;;;;;;;;;5072319;28;1250;-62
2023/12/06 05:34:07;;;;;;;;;;;;;;;;;;5074559;28;1293;-59
2023/12/06 05:36:32;;;;;;;;;;;;;;;;;;5071723;28;1265;-59
2023/12/06 05:38:58;;;;;;;;;;;;;;;;;;5074727;28;1878;-59
2023/12/06 05:41:23;;;;;;;;;;;;;;;;;;5073856;28;1304;-60
2023/12/06 05:43:50;;;;;;;;;;;;;;;;;;5069148;28;1254;-62
2023/12/06 05:46:15;;;;;;;;;;;;;;;;;;5073657;28;1270;-59
2023/12/06 05:48:40;;;;;;;;;;;;;;;;;;5070942;28;1214;-60
2023/12/06 05:51:05;;;;;;;;;;;;;;;;;;5070712;28;1442;-60
2023/12/06 05:53:30;;;;;;;;;;;;;;;;;;5070737;28;1286;-59
2023/12/06 05:55:56;;;;;;;;;;;;;;;;;;5073559;28;1307;-60
2023/12/06 05:58:21;;;;;;;;;;;;;;;;;;5072205;28;1973;-59
2023/12/06 06:00:46;;;;;;;;;;;;;;;;;;5071873;28;1298;-60
2023/12/06 06:03:11;;;;;;;;;;;;;;;;;;5073539;28;1253;-61
2023/12/06 06:05:36;;;;;;;;;;;;;;;;;;5076856;28;1262;-61
2023/12/06 06:08:02;;;;;;;;;;;;;;;;;;5082617;28;1279;-58
2023/12/06 06:10:28;;;;;;;;;;;;;;;;;;5082936;28;1364;-62
2023/12/06 06:12:53;;;;;;;;;;;;;;;;;;5079092;28;1183;-59
2023/12/06 06:15:18;;;;;;;;;;;;;;;;;;5082732;28;1296;-61
2023/12/06 06:17:43;;;;;;;;;;;;;;;;;;5082452;28;1854;-60
2023/12/06 06:20:09;;;;;;;;;;;;;;;;;;5073616;28;1139;-61
2023/12/06 06:22:35;;;;;;;;;;;;;;;;;;5072478;28;1218;-60
2023/12/06 06:25:00;;;;;;;;;;;;;;;;;;5073136;28;1266;-61
2023/12/06 06:27:25;;;;;;;;;;;;;;;;;;5072911;28;1230;-60
2023/12/06 06:29:50;;;;;;;;;;;;;;;;;;5068220;28;1411;-62
2023/12/06 06:32:15;;;;;;;;;;;;;;;;;;5071887;28;1234;-60
2023/12/06 06:34:40;;;;;;;;;;;;;;;;;;5074918;28;1235;-61
2023/12/06 06:37:06;;;;;;;;;;;;;;;;;;5071156;28;1877;-61
2023/12/06 06:39:31;;;;;;;;;;;;;;;;;;5070328;28;1183;-60
2023/12/06 06:41:56;;;;;;;;;;;;;;;;;;5077705;28;1347;-59
2023/12/06 06:44:22;;;;;;;;;;;;;;;;;;5080779;28;1246;-60
2023/12/06 06:46:47;;;;;;;;;;;;;;;;;;5082437;28;1364;-61
2023/12/06 06:49:12;;;;;;;;;;;;;;;;;;5082050;28;1571;-61
2023/12/06 06:51:37;;;;;;;;;;;;;;;;;;5082133;28;1166;-62
2023/12/06 06:54:02;;;;;;;;;;;;;;;;;;5082277;28;1143;-60
2023/12/06 06:56:28;;;;;;;;;;;;;;;;;;5084879;28;1347;-60
2023/12/06 06:58:53;;;;;;;;;;;;;;;;;;5085723;28;1906;-61
2023/12/06 07:01:18;;;;;;;;;;;;;;;;;;5083845;28;1218;-62
2023/12/06 07:03:44;;;;;;;;;;;;;;;;;;5085199;28;1234;-61
2023/12/06 07:06:09;;;;;;;;;;;;;;;;;;5085247;28;1314;-60
2023/12/06 07:08:35;;;;;;;;;;;;;;;;;;5084857;28;1191;-59
2023/12/06 07:11:00;;;;;;;;;;;;;;;;;;5084989;28;1092;-60
2023/12/06 07:13:26;;;;;;;;;;;;;;;;;;5084950;28;1199;-59
2023/12/06 07:15:51;;;;;;;;;;;;;;;;;;5085363;28;1346;-61
2023/12/06 07:18:16;;;;;;;;;;;;;;;;;;5084698;28;1882;-62
2023/12/06 07:20:42;;;;;;;;;;;;;;;;;;5085109;28;1209;-61
2023/12/06 07:23:08;;;;;;;;;;;;;;;;;;5084601;28;1314;-62
2023/12/06 07:25:33;;;;;;;;;;;;;;;;;;5084915;28;1316;-62
2023/12/06 07:27:59;;;;;;;;;;;;;;;;;;5084780;28;1117;-62
2023/12/06 07:30:24;;;;;;;;;;;;;;;;;;5067814;28;1554;-59
2023/12/06 07:32:49;;;;;;;;;;;;;;;;;;5064582;28;1270;-61
2023/12/06 07:35:14;;;;;;;;;;;;;;;;;;5075413;28;1725;-59
2023/12/06 07:37:39;;;;;;;;;;;;;;;;;;5084542;28;1898;-59
2023/12/06 07:40:07;;;;;;;;;;;;;;;;;;5084142;28;1483;-59
2023/12/06 07:42:33;;;;;;;;;;;;;;;;;;5084493;28;1313;-59
2023/12/06 07:44:58;;;;;;;;;;;;;;;;;;5083640;28;1263;-60
2023/12/06 07:47:23;;;;;;;;;;;;;;;;;;5084810;28;1183;-60
2023/12/06 07:49:48;;;;;;;;;;;;;;;;;;5084291;28;1307;-61
2023/12/06 07:52:13;;;;;;;;;;;;;;;;;;5084183;28;1448;-58
2023/12/06 07:54:39;;;;;;;;;;;;;;;;;;5084183;28;1309;-60
2023/12/06 07:57:04;;;;;;;;;;;;;;;;;;5083983;28;1886;-60
2023/12/06 07:59:30;;;;;;;;;;;;;;;;;;5084127;28;1295;-60
2023/12/06 08:01:55;;;;;;;;;;;;;;;;;;5084502;28;1079;-61
2023/12/06 08:04:20;;;;;;;;;;;;;;;;;;5082477;28;1653;-58
2023/12/06 08:06:45;;;;;;;;;;;;;;;;;;5077060;28;3762;-58
2023/12/06 08:09:12;;;;;;;;;;;;;;;;;;5067748;28;2930;-62
2023/12/06 08:11:37;;;;;;;;;;;;;;;;;;5069368;28;2933;-60
2023/12/06 08:14:03;;;;;;;;;;;;;;;;;;5064045;28;1243;-59
2023/12/06 08:16:28;;;;;;;;;;;;;;;;;;5064057;28;1159;-60
2023/12/06 08:18:53;;;;;;;;;;;;;;;;;;5064164;28;1961;-61
2023/12/06 08:21:18;;;;;;;;;;;;;;;;;;5082737;28;1208;-61
2023/12/06 08:23:43;;;;;;;;;;;;;;;;;;5080673;28;2944;-57
2023/12/06 08:26:10;;;;;;;;;;;;;;;;;;5063754;28;1300;-61
2023/12/06 08:28:36;;;;;;;;;;;;;;;;;;5064262;28;1100;-61
2023/12/06 08:31:01;;;;;;;;;;;;;;;;;;5083868;28;1201;-61
2023/12/06 08:33:26;;;;;;;;;;;;;;;;;;5083768;28;1192;-61
2023/12/06 08:35:51;;;;;;;;;;;;;;;;;;5084479;28;1335;-61
2023/12/06 08:38:16;;;;;;;;;;;;;;;;;;5083522;28;1889;-61
2023/12/06 08:40:41;;;;;;;;;;;;;;;;;;5083959;28;1115;-61
2023/12/06 08:43:06;;;;;;;;;;;;;;;;;;5083958;28;1318;-60
2023/12/06 08:45:33;;;;;;;;;;;;;;;;;;5083613;28;1413;-60
2023/12/06 08:47:58;;;;;;;;;;;;;;;;;;5074991;28;1112;-60
2023/12/06 08:50:25;;;;;;;;;;;;;;;;;;5080591;28;1156;-61
2023/12/06 08:52:50;;;;;;;;;;;;;;;;;;5080078;28;1210;-58
2023/12/06 08:55:16;;;;;;;;;;;;;;;;;;5079642;28;1256;-60
2023/12/06 08:57:41;;;;;;;;;;;;;;;;;;5081917;28;1902;-59
2023/12/06 09:00:07;;;;;;;;;;;;;;;;;;5082828;28;1304;-59
2023/12/06 09:02:33;;;;;;;;;;;;;;;;;;5083824;28;1318;-61
2023/12/06 09:04:58;;;;;;;;;;;;;;;;;;5083938;28;1179;-60
2023/12/06 09:07:24;;;;;;;;;;;;;;;;;;5083607;28;1242;-58
2023/12/06 09:09:50;;;;;;;;;;;;;;;;;;5083651;28;1187;-59
2023/12/06 09:12:15;;;;;;;;;;;;;;;;;;5084009;28;1352;-60
2023/12/06 09:14:41;;;;;;;;;;;;;;;;;;5084028;28;1160;-61
2023/12/06 09:17:06;;;;;;;;;;;;;;;;;;5082861;28;1882;-61
2023/12/06 09:19:32;;;;;;;;;;;;;;;;;;5082931;28;1345;-61
2023/12/06 09:21:57;;;;;;;;;;;;;;;;;;5083291;28;1294;-59
2023/12/06 09:24:22;;;;;;;;;;;;;;;;;;5083266;28;1314;-62
2023/12/06 09:26:47;;;;;;;;;;;;;;;;;;5083397;28;1411;-61
2023/12/06 09:29:12;;;;;;;;;;;;;;;;;;5083441;28;1115;-61
2023/12/06 09:31:38;;;;;;;;;;;;;;;;;;5083167;28;1235;-60
2023/12/06 09:34:03;;;;;;;;;;;;;;;;;;5083232;28;1159;-61
2023/12/06 09:36:28;;;;;;;;;;;;;;;;;;5083355;28;1418;-60
2023/12/06 09:38:53;;;;;;;;;;;;;;;;;;5082917;28;1862;-55
2023/12/06 09:41:18;;;;;;;;;;;;;;;;;;5083058;28;1405;-62
2023/12/06 09:43:44;;;;;;;;;;;;;;;;;;5082965;28;1196;-59
2023/12/06 09:46:09;;;;;;;;;;;;;;;;;;5083021;28;1302;-60
2023/12/06 09:48:34;;;;;;;;;;;;;;;;;;5082978;28;1148;-60
2023/12/06 09:50:59;;;;;;;;;;;;;;;;;;5082905;28;1223;-59
2023/12/06 09:53:25;;;;;;;;;;;;;;;;;;5083240;28;1174;-61
2023/12/06 09:55:50;;;;;;;;;;;;;;;;;;5082252;28;1329;-59
2023/12/06 09:58:17;;;;;;;;;;;;;;;;;;5082780;28;1902;-57
2023/12/06 10:00:42;;;;;;;;;;;;;;;;;;5090241;28;1096;-61
2023/12/06 10:03:08;;;;;;;;;;;;;;;;;;5084896;28;1119;-60
2023/12/06 10:05:33;;;;;;;;;;;;;;;;;;5085850;28;1182;-60
2023/12/06 10:07:58;;;;;;;;;;;;;;;;;;5085394;28;1100;-60
2023/12/06 10:10:23;;;;;;;;;;;;;;;;;;5086001;28;1344;-60
2023/12/06 10:12:48;;;;;;;;;;;;;;;;;;5085838;28;1124;-59
2023/12/06 10:15:14;;;;;;;;;;;;;;;;;;5085849;28;1136;-62
2023/12/06 10:17:39;;;;;;;;;;;;;;;;;;5085514;28;1878;-61
2023/12/06 10:20:04;;;;;;;;;;;;;;;;;;5086046;28;1242;-61
2023/12/06 10:22:29;;;;;;;;;;;;;;;;;;5084183;28;1263;-61
2023/12/06 10:24:55;;;;;;;;;;;;;;;;;;5085036;28;1191;-60
2023/12/06 10:27:21;;;;;;;;;;;;;;;;;;5084528;28;1402;-61
2023/12/06 10:29:46;;;;;;;;;;;;;;;;;;5085029;28;1357;-60
2023/12/06 10:32:11;;;;;;;;;;;;;;;;;;5084636;28;1295;-62
2023/12/06 10:34:36;;;;;;;;;;;;;;;;;;5084420;28;1202;-60
2023/12/06 10:37:02;;;;;;;;;;;;;;;;;;5084901;28;1937;-60
2023/12/06 10:39:27;;;;;;;;;;;;;;;;;;5085216;28;1376;-60
2023/12/06 10:41:52;;;;;;;;;;;;;;;;;;5085368;28;1207;-60
2023/12/06 10:44:18;;;;;;;;;;;;;;;;;;5085204;28;1096;-59
2023/12/06 10:46:43;;;;;;;;;;;;;;;;;;5085495;28;1231;-62
2023/12/06 10:49:08;;;;;;;;;;;;;;;;;;5085278;28;1187;-61
2023/12/06 10:51:33;;;;;;;;;;;;;;;;;;5085259;28;1306;-60
2023/12/06 10:53:59;;;;;;;;;;;;;;;;;;5085086;28;1358;-60
2023/12/06 10:56:26;;;;;;;;;;;;;;;;;;5085338;28;1171;-60
2023/12/06 10:58:52;;;;;;;;;;;;;;;;;;5084951;28;1913;-61
2023/12/06 11:01:17;;;;;;;;;;;;;;;;;;5084895;28;1210;-60
2023/12/06 11:03:43;;;;;;;;;;;;;;;;;;5084939;28;1275;-60
2023/12/06 11:06:08;;;;;;;;;;;;;;;;;;5084950;28;1191;-61
2023/12/06 11:08:34;;;;;;;;;;;;;;;;;;5084731;28;1179;-60
2023/12/06 11:10:59;;;;;;;;;;;;;;;;;;5084742;28;1134;-60
2023/12/06 11:13:24;;;;;;;;;;;;;;;;;;5084690;28;1270;-61
2023/12/06 11:15:49;;;;;;;;;;;;;;;;;;5084662;28;1214;-61
2023/12/06 11:18:15;;;;;;;;;;;;;;;;;;5083697;28;1882;-61
2023/12/06 11:20:40;;;;;;;;;;;;;;;;;;5084455;28;1242;-60
2023/12/06 11:23:05;;;;;;;;;;;;;;;;;;5084622;28;1207;-61
2023/12/06 11:25:31;;;;;;;;;;;;;;;;;;5084485;28;1190;-62
2023/12/06 11:27:56;;;;;;;;;;;;;;;;;;5084736;28;1377;-60
2023/12/06 11:30:22;;;;;;;;;;;;;;;;;;5084921;28;1112;-60
2023/12/06 11:32:47;;;;;;;;;;;;;;;;;;5084768;28;1290;-59
2023/12/06 11:35:13;;;;;;;;;;;;;;;;;;5084753;28;1221;-59
2023/12/06 11:37:38;;;;;;;;;;;;;;;;;;5084268;28;1953;-60
2023/12/06 11:40:04;;;;;;;;;;;;;;;;;;5084275;28;1171;-57
2023/12/06 11:42:30;;;;;;;;;;;;;;;;;;5084200;28;1191;-60
2023/12/06 11:44:55;;;;;;;;;;;;;;;;;;5084132;28;1195;-61
2023/12/06 11:47:21;;;;;;;;;;;;;;;;;;5084529;28;1432;-60
2023/12/06 11:49:46;;;;;;;;;;;;;;;;;;5084504;28;1320;-61
2023/12/06 11:52:12;;;;;;;;;;;;;;;;;;5084854;28;1100;-59
2023/12/06 11:54:37;;;;;;;;;;;;;;;;;;5083714;28;1232;-59
2023/12/06 11:57:02;;;;;;;;;;;;;;;;;;5083921;28;1977;-58
2023/12/06 11:59:27;;;;;;;;;;;;;;;;;;5084075;28;1293;-60
2023/12/06 12:01:53;;;;;;;;;;;;;;;;;;5084454;28;1305;-61
2023/12/06 12:04:18;;;;;;;;;;;;;;;;;;5084030;28;1473;-59
2023/12/06 12:06:43;;;;;;;;;;;;;;;;;;5084001;28;1194;-60
2023/12/06 12:09:10;;;;;;;;;;;;;;;;;;5084393;28;1104;-61
2023/12/06 12:11:35;;;;;;;;;;;;;;;;;;5083915;28;1218;-60
2023/12/06 12:14:01;;;;;;;;;;;;;;;;;;5083963;28;1238;-58
2023/12/06 12:16:26;;;;;;;;;;;;;;;;;;5084206;28;1208;-60
2023/12/06 12:18:51;;;;;;;;;;;;;;;;;;5083866;28;1937;-62
2023/12/06 12:21:19;;;;;;;;;;;;;;;;;;5084023;28;1249;-59
2023/12/06 12:23:44;;;;;;;;;;;;;;;;;;5083810;28;1097;-57
2023/12/06 12:26:09;;;;;;;;;;;;;;;;;;5083607;28;1268;-61
2023/12/06 12:28:34;;;;;;;;;;;;;;;;;;5084071;28;1266;-56
2023/12/06 12:31:00;;;;;;;;;;;;;;;;;;5086263;28;1416;-61
2023/12/06 12:33:25;;;;;;;;;;;;;;;;;;5087219;28;1170;-61
2023/12/06 12:35:50;;;;;;;;;;;;;;;;;;5087122;28;1372;-60
2023/12/06 12:38:16;;;;;;;;;;;;;;;;;;5087090;28;1858;-61
2023/12/06 12:40:41;;;;;;;;;;;;;;;;;;5087716;28;1135;-60
2023/12/06 12:43:07;;;;;;;;;;;;;;;;;;5087119;28;1227;-61
2023/12/06 12:45:32;;;;;;;;;;;;;;;;;;5087380;28;1219;-61
2023/12/06 12:47:58;;;;;;;;;;;;;;;;;;5087415;28;1208;-60
2023/12/06 12:50:23;;;;;;;;;;;;;;;;;;5087538;28;1397;-61
2023/12/06 12:52:49;;;;;;;;;;;;;;;;;;5087289;28;1107;-62
2023/12/06 12:55:15;;;;;;;;;;;;;;;;;;5086930;28;1426;-62
2023/12/06 12:57:40;;;;;;;;;;;;;;;;;;5086561;28;1894;-62
2023/12/06 13:00:05;;;;;;;;;;;;;;;;;;5087077;28;1325;-60
2023/12/06 13:02:31;;;;;;;;;;;;;;;;;;5087050;28;1119;-61
2023/12/06 13:04:57;;;;;;;;;;;;;;;;;;5086890;28;1226;-60
2023/12/06 13:07:22;;;;;;;;;;;;;;;;;;5086961;28;1265;-60
2023/12/06 13:09:47;;;;;;;;;;;;;;;;;;5086624;28;1300;-60
2023/12/06 13:12:12;;;;;;;;;;;;;;;;;;5086702;28;1115;-61
2023/12/06 13:14:38;;;;;;;;;;;;;;;;;;5086686;28;1081;-62
2023/12/06 13:17:04;;;;;;;;;;;;;;;;;;5086560;28;1886;-62
2023/12/06 13:19:29;;;;;;;;;;;;;;;;;;5086761;28;1179;-60
2023/12/06 13:21:55;;;;;;;;;;;;;;;;;;5086710;28;1281;-60
2023/12/06 13:24:20;;;;;;;;;;;;;;;;;;5086815;28;1384;-60
2023/12/06 13:26:45;;;;;;;;;;;;;;;;;;5087118;28;1343;-62
2023/12/06 13:29:10;;;;;;;;;;;;;;;;;;5086367;28;1215;-60
2023/12/06 13:31:36;;;;;;;;;;;;;;;;;;5086626;28;1312;-60
2023/12/06 13:34:02;;;;;;;;;;;;;;;;;;5086289;28;1198;-61
2023/12/06 13:36:27;;;;;;;;;;;;;;;;;;5086454;28;1104;-61
2023/12/06 13:38:52;;;;;;;;;;;;;;;;;;5086058;28;1870;-61
2023/12/06 13:41:17;;;;;;;;;;;;;;;;;;5085450;28;1195;-61
2023/12/06 13:43:42;;;;;;;;;;;;;;;;;;5085989;28;1196;-60
2023/12/06 13:46:07;;;;;;;;;;;;;;;;;;5086391;28;1218;-62
2023/12/06 13:48:33;;;;;;;;;;;;;;;;;;5086367;28;1250;-59
2023/12/06 13:50:58;;;;;;;;;;;;;;;;;;5086085;28;1338;-61
2023/12/06 13:53:23;;;;;;;;;;;;;;;;;;5086462;28;1219;-61
2023/12/06 13:55:49;;;;;;;;;;;;;;;;;;5085981;28;1318;-60
2023/12/06 13:58:14;;;;;;;;;;;;;;;;;;5082061;28;1906;-61
2023/12/06 14:00:39;;;;;;;;;;;;;;;;;;5082738;28;1417;-61
2023/12/06 14:03:04;;;;;;;;;;;;;;;;;;5082722;28;1445;-59
2023/12/06 14:05:32;;;;;;;;;;;;;;;;;;5082463;28;1159;-60
2023/12/06 14:07:58;;;;;;;;;;;;;;;;;;5080703;28;1108;-61
2023/12/06 14:10:23;;;;;;;;;;;;;;;;;;5081891;28;1434;-61
2023/12/06 14:12:48;;;;;;;;;;;;;;;;;;5082068;28;1091;-61
2023/12/06 14:15:13;;;;;;;;;;;;;;;;;;5082299;28;1266;-62
2023/12/06 14:17:38;;;;;;;;;;;;;;;;;;5081967;28;1878;-60
2023/12/06 14:20:04;;;;;;;;;;;;;;;;;;5082156;28;1313;-61
2023/12/06 14:22:30;;;;;;;;;;;;;;;;;;5082151;28;1233;-60
2023/12/06 14:24:57;;;;;;;;;;;;;;;;;;5082275;28;1118;-60
2023/12/06 14:27:22;;;;;;;;;;;;;;;;;;5082195;28;1317;-60
2023/12/06 14:29:48;;;;;;;;;;;;;;;;;;5082391;28;1207;-61
2023/12/06 14:32:13;;;;;;;;;;;;;;;;;;5082126;28;1353;-61
2023/12/06 14:34:38;;;;;;;;;;;;;;;;;;5081905;28;1177;-61
2023/12/06 14:37:03;;;;;;;;;;;;;;;;;;5082216;28;1882;-61
2023/12/06 14:39:28;;;;;;;;;;;;;;;;;;5082288;28;1197;-63
2023/12/06 14:41:54;;;;;;;;;;;;;;;;;;5081950;28;1295;-62
2023/12/06 14:44:19;;;;;;;;;;;;;;;;;;5081799;28;1202;-60
2023/12/06 14:46:44;;;;;;;;;;;;;;;;;;5082182;28;1464;-60
2023/12/06 14:49:10;;;;;;;;;;;;;;;;;;5081903;28;1294;-61
2023/12/06 14:51:36;;;;;;;;;;;;;;;;;;5082364;28;1261;-60
2023/12/06 14:54:03;;;;;;;;;;;;;;;;;;5081717;28;1089;-61
2023/12/06 14:56:29;;;;;;;;;;;;;;;;;;5084454;28;1225;-61
2023/12/06 14:58:54;;;;;;;;;;;;;;;;;;5085272;28;1886;-61
2023/12/06 15:01:20;;;;;;;;;;;;;;;;;;5085620;28;1132;-61
2023/12/06 15:03:46;;;;;;;;;;;;;;;;;;5085052;28;1325;-62
2023/12/06 15:06:11;;;;;;;;;;;;;;;;;;5084642;28;1309;-62
2023/12/06 15:09:55;;;;;;;;;;;;;;;;;;5058022;28;1356;-63
2023/12/06 15:12:21;;;;;;;;;;;;;;;;;;5057641;28;1203;-62
2023/12/06 15:14:48;;;;;;;;;;;;;;;;;;5058571;28;1112;-62
2023/12/06 15:17:13;;;;;;;;;;;;;;;;;;5058712;28;1261;-63
2023/12/06 15:19:39;;;;;;;;;;;;;;;;;;5057486;28;1718;-60
